Time;durP1;ratioP1;P1;durP2;ratioP2;P2;SDS_P1;SDS_P2;PMS_P1;PMS_P2;Temp;Humidity;BMP_temperature;BMP_pressure;BME280_temperature;BME280_humidity;BME280_pressure;Samples;Min_cycle;Max_cycle;Signal;HPM_P1;HPM_P2
2022/06/23 00:01:04;;;;;;;7.65;4.07;;;;;;;15.84;52.47;98717.00;5064308;27;20034;-75
2022/06/23 00:03:34;;;;;;;6.75;3.70;;;;;;;15.81;52.93;98712.78;5098526;27;20049;-73
2022/06/23 00:06:03;;;;;;;7.70;4.00;;;;;;;15.77;53.42;98707.91;5084485;27;20405;-70
2022/06/23 00:08:28;;;;;;;4.28;3.15;;;;;;;15.72;53.53;98710.25;5101576;27;20065;-73
2022/06/23 00:10:59;;;;;;;7.03;3.08;;;;;;;15.69;53.18;98714.09;5122457;27;20043;-77
2022/06/23 00:13:37;;;;;;;6.82;3.70;;;;;;;15.69;53.24;98716.78;5068232;28;20091;-69
2022/06/23 00:16:04;;;;;;;5.47;3.13;;;;;;;15.57;53.62;98723.50;5102543;27;20075;-76
2022/06/23 00:18:36;;;;;;;7.10;4.00;;;;;;;15.56;53.82;98714.59;5099813;27;20145;-66
2022/06/23 00:21:21;;;;;;;5.43;3.97;;;;;;;15.54;53.98;98721.97;5118083;27;20038;-70
2022/06/23 00:23:53;;;;;;;9.45;3.78;;;;;;;15.47;54.10;98718.19;5116796;27;20050;-70
2022/06/23 00:26:20;;;;;;;6.45;4.30;;;;;;;15.40;54.33;98713.66;5097992;27;20043;-72
2022/06/23 00:28:49;;;;;;;8.00;3.78;;;;;;;15.36;54.73;98714.97;5097907;27;21023;-70
2022/06/23 00:31:37;;;;;;;9.45;4.18;;;;;;;15.38;54.68;98721.88;5116510;27;20093;-69
2022/06/23 00:34:13;;;;;;;10.13;3.80;;;;;;;15.26;55.34;98732.06;5116485;27;20043;-73
2022/06/23 00:36:43;;;;;;;5.95;3.50;;;;;;;15.22;55.32;98735.25;5116673;27;20090;-72
2022/06/23 00:39:27;;;;;;;8.38;3.63;;;;;;;15.24;55.42;98738.59;5116532;27;20046;-71
2022/06/23 00:41:52;;;;;;;5.72;3.47;;;;;;;15.14;55.62;98745.94;5116800;27;20042;-74
2022/06/23 00:44:46;;;;;;;9.85;3.80;;;;;;;15.17;55.51;98741.09;5080307;27;20043;-74
2022/06/23 00:47:21;;;;;;;10.43;4.97;;;;;;;15.12;56.27;98747.97;5098818;27;20054;-73
2022/06/23 00:49:54;;;;;;;9.68;4.65;;;;;;;15.07;56.68;98751.09;5080690;27;20091;-72
2022/06/23 00:52:27;;;;;;;8.60;3.88;;;;;;;15.06;56.62;98748.59;5097563;27;20050;-72
2022/06/23 00:54:55;;;;;;;5.95;3.70;;;;;;;14.99;57.32;98744.88;5098837;27;20054;-69
2022/06/23 00:57:24;;;;;;;6.35;3.72;;;;;;;14.98;57.49;98749.38;5119239;27;20886;-71
2022/06/23 00:59:53;;;;;;;8.40;4.05;;;;;;;14.94;57.37;98748.00;5120430;27;20033;-71
2022/06/23 01:02:26;;;;;;;6.78;3.72;;;;;;;14.94;57.16;98744.47;5103711;27;20042;-70
2022/06/23 01:05:17;;;;;;;11.70;3.92;;;;;;;14.98;57.13;98752.06;5121620;27;20047;-71
2022/06/23 01:07:54;;;;;;;8.90;3.70;;;;;;;14.92;57.11;98752.69;5121191;27;20053;-71
2022/06/23 01:10:43;;;;;;;9.95;4.00;;;;;;;14.94;57.88;98750.69;5121785;27;20042;-71
2022/06/23 01:13:21;;;;;;;6.63;4.00;;;;;;;14.94;57.53;98755.22;5122052;27;20564;-70
2022/06/23 01:15:52;;;;;;;9.13;3.88;;;;;;;14.93;58.02;98756.22;5102626;27;20039;-73
2022/06/23 01:18:30;;;;;;;5.65;3.83;;;;;;;14.96;58.68;98758.59;5085416;27;20091;-75
2022/06/23 01:21:00;;;;;;;7.65;3.97;;;;;;;14.90;58.13;98754.69;5101012;27;20758;-71
2022/06/23 01:23:58;;;;;;;8.63;4.10;;;;;;;14.95;57.98;98764.97;5093444;27;20035;-66
2022/06/23 01:26:59;;;;;;;6.53;3.80;;;;;;;14.99;58.18;98769.88;5100751;27;20174;-66
2022/06/23 01:29:40;;;;;;;9.55;3.92;;;;;;;14.94;58.34;98772.16;5034180;28;20052;-65
2022/06/23 01:32:25;;;;;;;5.63;3.85;;;;;;;15.02;57.97;98771.38;5031015;28;20086;-66
2022/06/23 01:35:05;;;;;;;11.25;4.30;;;;;;;15.02;58.30;98776.72;5014142;28;20048;-63
2022/06/23 01:37:45;;;;;;;7.05;3.63;;;;;;;15.05;58.63;98781.78;4997949;28;20511;-68
2022/06/23 01:40:15;;;;;;;6.75;3.80;;;;;;;15.02;57.15;98774.88;4997646;28;20055;-64
2022/06/23 01:43:22;;;;;;;10.38;4.07;;;;;;;15.13;57.96;98780.00;5014523;28;20045;-64
2022/06/23 01:46:01;;;;;;;7.03;3.85;;;;;;;15.17;57.83;98781.38;5006159;28;20059;-63
2022/06/23 01:49:08;;;;;;;6.68;3.55;;;;;;;15.22;57.96;98778.22;4997801;28;20056;-69
2022/06/23 01:51:50;;;;;;;7.95;3.85;;;;;;;15.23;58.41;98782.59;4971892;28;20449;-69
2022/06/23 01:54:26;;;;;;;7.72;3.85;;;;;;;15.26;58.56;98779.56;4923424;28;20120;-69
2022/06/23 01:56:55;;;;;;;5.95;3.80;;;;;;;15.27;58.31;98789.28;4955991;28;20058;-71
2022/06/23 01:59:47;;;;;;;6.43;4.30;;;;;;;15.37;57.99;98794.53;4971928;28;20046;-69
2022/06/23 02:02:11;;;;;;;9.57;4.80;;;;;;;15.34;57.26;98795.72;4956069;28;20064;-71
2022/06/23 02:05:11;;;;;;;9.43;4.43;;;;;;;15.46;57.55;98801.66;4969365;28;20053;-71
2022/06/23 02:07:39;;;;;;;5.70;3.33;;;;;;;15.48;58.15;98799.63;4997712;28;20044;-69
2022/06/23 02:10:34;;;;;;;6.85;3.53;;;;;;;15.60;56.58;98801.06;5018242;28;20147;-69
2022/06/23 02:13:14;;;;;;;6.93;3.90;;;;;;;15.66;57.00;98804.97;4960687;28;20092;-68
2022/06/23 02:15:58;;;;;;;7.28;3.45;;;;;;;15.69;56.16;98801.97;4944406;28;20053;-67
2022/06/23 02:18:32;;;;;;;8.70;3.53;;;;;;;15.76;56.64;98809.19;4948280;28;20060;-68
2022/06/23 02:21:00;;;;;;;9.40;4.10;;;;;;;15.86;56.06;98814.44;4960247;28;20321;-72
2022/06/23 02:23:45;;;;;;;7.05;3.70;;;;;;;15.97;55.91;98812.28;4961233;28;20047;-71
2022/06/23 02:26:26;;;;;;;6.15;3.95;;;;;;;16.06;56.38;98823.06;4959838;28;20133;-75
2022/06/23 02:29:12;;;;;;;7.32;3.65;;;;;;;16.16;56.28;98829.97;4984057;28;20505;-76
2022/06/23 02:32:04;;;;;;;7.18;3.65;;;;;;;16.24;55.61;98829.16;5000996;28;20087;-77
2022/06/23 02:34:43;;;;;;;6.38;3.63;;;;;;;16.33;55.83;98830.84;5016939;28;20045;-76
2022/06/23 02:37:45;;;;;;;7.57;3.65;;;;;;;16.45;55.75;98836.75;5016985;28;20057;-77
2022/06/23 02:40:29;;;;;;;5.25;2.95;;;;;;;16.52;54.22;98835.91;4967153;28;20076;-76
2022/06/23 02:43:25;;;;;;;7.00;3.60;;;;;;;16.66;54.41;98848.75;4982120;28;20190;-73
2022/06/23 02:46:17;;;;;;;5.60;3.17;;;;;;;16.76;54.03;98848.56;5015298;28;20059;-74
2022/06/23 02:48:42;;;;;;;7.90;3.63;;;;;;;16.81;53.40;98846.22;4998894;28;20064;-83
2022/06/23 02:51:21;;;;;;;7.80;3.72;;;;;;;16.97;53.39;98848.06;5082590;27;20078;-78
2022/06/23 02:54:04;;;;;;;8.02;3.45;;;;;;;17.00;53.03;98843.19;5104420;27;20058;-73
2022/06/23 02:57:06;;;;;;;4.90;3.20;;;;;;;17.21;53.39;98850.72;5086139;27;20143;-69
2022/06/23 03:00:05;;;;;;;4.57;3.42;;;;;;;17.36;52.84;98850.88;5108727;27;20063;-67
2022/06/23 03:02:36;;;;;;;5.13;3.55;;;;;;;17.42;53.58;98856.41;5121413;27;20098;-67
2022/06/23 03:05:40;;;;;;;6.28;3.63;;;;;;;17.59;53.04;98859.91;5104601;27;20043;-67
2022/06/23 03:08:47;;;;;;;5.32;3.60;;;;;;;17.71;52.86;98865.78;5083303;27;20409;-67
2022/06/23 03:11:18;;;;;;;7.32;4.05;;;;;;;17.76;51.88;98861.53;5101599;27;20047;-68
2022/06/23 03:13:47;;;;;;;10.40;4.30;;;;;;;17.87;51.76;98864.88;5099292;27;20523;-67
2022/06/23 03:16:25;;;;;;;12.18;4.22;;;;;;;17.97;51.70;98868.19;5098224;27;20045;-67
2022/06/23 03:19:02;;;;;;;7.65;3.63;;;;;;;18.06;51.39;98864.44;5109890;27;20059;-66
2022/06/23 03:21:50;;;;;;;6.53;3.97;;;;;;;18.17;50.93;98865.94;5077038;27;20506;-66
2022/06/23 03:24:45;;;;;;;9.80;4.40;;;;;;;18.36;50.99;98876.28;5097820;27;20460;-69
2022/06/23 03:27:30;;;;;;;13.70;4.10;;;;;;;18.55;50.83;98872.25;5105144;27;20043;-69
2022/06/23 03:29:57;;;;;;;7.88;4.10;;;;;;;18.63;50.17;98883.03;5116741;27;20039;-70
2022/06/23 03:32:47;;;;;;;6.25;4.10;;;;;;;18.82;50.16;98890.69;5098362;27;20047;-70
2022/06/23 03:35:32;;;;;;;9.93;4.22;;;;;;;18.88;49.92;98891.78;5098404;27;20051;-70
2022/06/23 03:38:02;;;;;;;6.45;4.00;;;;;;;18.98;49.20;98895.94;5097603;27;20035;-70
2022/06/23 03:43:31;;;;;;;7.53;3.58;;;;;;;19.32;48.96;98900.88;5116178;27;20050;-68
2022/06/23 03:46:33;;;;;;;4.70;3.60;;;;;;;19.49;49.42;98897.03;5097935;27;20125;-70
2022/06/23 03:49:07;;;;;;;5.50;3.38;;;;;;;19.56;47.91;98903.38;5116907;27;20046;-74
2022/06/23 03:51:35;;;;;;;5.18;3.85;;;;;;;19.67;47.58;98895.81;5098791;27;20039;-75
2022/06/23 03:54:09;;;;;;;7.32;3.55;;;;;;;19.74;47.41;98900.31;5081610;27;20070;-74
2022/06/23 03:57:13;;;;;;;10.73;3.80;;;;;;;19.94;47.48;98903.31;5097935;27;20439;-74
2022/06/23 04:00:00;;;;;;;6.28;3.53;;;;;;;20.04;47.25;98911.97;5098926;27;20041;-75
2022/06/23 04:02:31;;;;;;;5.60;3.15;;;;;;;20.14;46.75;98914.38;5081449;27;20046;-74
2022/06/23 04:05:16;;;;;;;9.02;4.13;;;;;;;20.33;46.62;98910.22;5115429;27;20077;-73
2022/06/23 04:07:44;;;;;;;4.75;3.47;;;;;;;20.36;45.82;98908.03;5097793;27;20121;-73
2022/06/23 04:10:13;;;;;;;3.30;3.00;;;;;;;20.49;45.42;98919.03;5097814;27;20050;-73
2022/06/23 04:12:44;;;;;;;6.22;3.80;;;;;;;20.64;45.33;98922.53;5097732;27;20038;-74
2022/06/23 04:15:17;;;;;;;9.60;4.43;;;;;;;20.76;45.18;98933.72;5116659;27;20118;-74
2022/06/23 04:17:47;;;;;;;4.45;3.50;;;;;;;20.92;45.22;98921.78;5119706;27;20056;-73
2022/06/23 04:20:30;;;;;;;4.70;3.47;;;;;;;21.16;45.31;98920.53;5097736;27;20058;-74
2022/06/23 04:23:01;;;;;;;5.85;3.85;;;;;;;21.23;44.36;98933.16;5103296;27;20070;-72
2022/06/23 04:25:48;;;;;;;6.47;3.97;;;;;;;21.39;44.16;98929.34;5125106;27;20558;-74
2022/06/23 04:28:42;;;;;;;9.90;4.43;;;;;;;21.52;43.74;98934.03;5121291;27;20038;-74
2022/06/23 04:31:08;;;;;;;7.30;2.97;;;;;;;21.55;43.54;98930.94;5104560;27;20102;-75
2022/06/23 04:33:38;;;;;;;8.05;3.67;;;;;;;21.67;43.03;98938.31;5125288;27;20042;-74
2022/06/23 04:36:04;;;;;;;4.75;3.13;;;;;;;21.76;42.32;98932.75;5104407;27;20039;-76
2022/06/23 04:38:32;;;;;;;5.95;3.95;;;;;;;21.95;41.76;98938.28;5121610;27;20041;-77
2022/06/23 04:41:06;;;;;;;15.68;3.85;;;;;;;22.18;41.65;98938.03;5127218;27;20030;-76
2022/06/23 04:43:36;;;;;;;6.57;3.40;;;;;;;22.41;41.69;98937.72;5109132;27;20038;-77
2022/06/23 04:46:22;;;;;;;5.43;3.25;;;;;;;22.79;41.39;98943.56;5126263;27;20591;-75
2022/06/23 04:48:54;;;;;;;6.95;3.53;;;;;;;23.05;40.64;98934.59;5121197;27;20042;-76
2022/06/23 04:51:25;;;;;;;6.50;3.20;;;;;;;23.31;39.14;98941.97;5120150;27;20046;-77
2022/06/23 04:53:55;;;;;;;4.70;3.13;;;;;;;23.59;38.84;98934.44;5121409;27;20121;-75
2022/06/23 04:56:38;;;;;;;7.10;3.70;;;;;;;23.99;38.84;98939.84;5101827;27;20046;-76
2022/06/23 04:59:25;;;;;;;4.57;3.65;;;;;;;24.35;37.89;98933.91;5101908;27;20038;-77
2022/06/23 05:01:54;;;;;;;7.50;3.38;;;;;;;24.78;37.48;98945.88;5119584;27;20053;-76
2022/06/23 05:04:59;;;;;;;10.52;3.30;;;;;;;25.14;37.28;98944.44;5119806;27;20087;-77
2022/06/23 05:07:39;;;;;;;6.47;3.25;;;;;;;25.47;35.49;98949.66;5107097;27;20094;-77
2022/06/23 05:10:06;;;;;;;4.20;3.15;;;;;;;25.82;35.07;98937.19;5119865;27;20050;-75
2022/06/23 05:12:36;;;;;;;5.25;3.30;;;;;;;26.10;34.73;98942.16;5118643;27;20047;-73
2022/06/23 05:15:24;;;;;;;6.65;3.35;;;;;;;26.35;34.48;98948.41;5100057;27;20042;-74
2022/06/23 05:17:53;;;;;;;4.90;2.90;;;;;;;26.47;32.46;98947.66;5098623;27;20497;-73
2022/06/23 05:20:29;;;;;;;3.22;2.92;;;;;;;26.63;32.31;98941.56;5080450;27;20047;-74
2022/06/23 05:22:54;;;;;;;3.30;2.85;;;;;;;26.83;31.92;98946.78;5098869;27;20333;-74
2022/06/23 05:25:34;;;;;;;5.90;3.00;;;;;;;26.96;32.33;98944.72;5098740;27;20070;-73
2022/06/23 05:28:01;;;;;;;5.20;3.25;;;;;;;27.21;31.66;98946.44;5115219;27;20544;-73
2022/06/23 05:30:29;;;;;;;3.85;3.03;;;;;;;27.32;30.77;98946.47;5098672;27;20536;-73
2022/06/23 05:33:17;;;;;;;6.72;3.33;;;;;;;27.44;31.00;98947.34;5080122;27;20055;-73
2022/06/23 05:35:48;;;;;;;5.20;2.80;;;;;;;27.61;30.87;98946.69;5079946;27;20393;-74
2022/06/23 05:38:52;;;;;;;6.00;3.33;;;;;;;27.88;31.46;98947.88;5080174;27;20050;-77
2022/06/23 05:41:30;;;;;;;4.05;3.13;;;;;;;28.04;30.83;98968.28;5079151;27;20043;-75
2022/06/23 05:43:57;;;;;;;3.20;2.90;;;;;;;28.09;30.06;98960.19;5100993;27;20075;-75
2022/06/23 05:46:25;;;;;;;4.30;3.08;;;;;;;28.05;28.17;98969.94;5100713;27;20042;-75
2022/06/23 05:49:04;;;;;;;3.63;2.90;;;;;;;28.07;29.01;98978.75;5124610;27;20046;-76
2022/06/23 05:51:46;;;;;;;3.03;2.72;;;;;;;27.96;28.89;98974.13;5112785;27;20039;-73
2022/06/23 05:54:30;;;;;;;3.65;2.63;;;;;;;28.07;29.18;98973.28;5100353;27;20041;-73
2022/06/23 05:57:05;;;;;;;3.10;2.80;;;;;;;28.52;29.14;98970.75;5098507;27;20523;-73
2022/06/23 05:59:45;;;;;;;4.35;2.92;;;;;;;29.11;27.75;98964.03;5081148;27;20047;-76
2022/06/23 06:02:13;;;;;;;5.88;3.08;;;;;;;29.64;25.82;98967.44;5079928;27;20528;-74
2022/06/23 06:04:55;;;;;;;4.45;3.13;;;;;;;30.25;25.69;98966.50;5086680;27;20488;-75
2022/06/23 06:07:25;;;;;;;5.53;3.10;;;;;;;31.07;24.85;98962.88;5100158;27;20059;-73
2022/06/23 06:09:50;;;;;;;8.77;3.60;;;;;;;31.74;23.77;98966.88;5082847;27;20043;-74
2022/06/23 06:12:21;;;;;;;5.68;3.08;;;;;;;32.23;22.96;98979.66;5119014;27;20048;-75
2022/06/23 06:14:57;;;;;;;5.25;3.25;;;;;;;32.64;22.18;98987.06;5099877;27;20540;-76
2022/06/23 06:17:24;;;;;;;3.40;3.10;;;;;;;33.04;21.62;98980.06;5118564;27;20080;-75
2022/06/23 06:19:51;;;;;;;7.55;3.03;;;;;;;33.36;20.77;98977.97;5118963;27;20453;-76
2022/06/23 06:22:26;;;;;;;5.22;2.92;;;;;;;33.51;21.27;98985.47;5119109;27;20038;-76
2022/06/23 06:24:53;;;;;;;4.40;3.00;;;;;;;33.36;20.10;98986.25;5099879;27;20453;-77
2022/06/23 06:27:19;;;;;;;3.83;3.08;;;;;;;33.54;21.37;98991.25;5117590;27;20413;-76
2022/06/23 06:29:46;;;;;;;4.10;3.22;;;;;;;34.00;20.67;98979.38;5100054;27;20041;-76
2022/06/23 06:32:33;;;;;;;5.03;3.72;;;;;;;34.62;20.94;98975.41;5083419;27;20043;-75
2022/06/23 06:35:13;;;;;;;3.65;3.35;;;;;;;35.07;20.08;98985.47;5100023;27;20038;-76
2022/06/23 06:37:43;;;;;;;5.35;2.97;;;;;;;34.90;18.49;98985.84;5100401;27;20509;-76
2022/06/23 06:40:08;;;;;;;4.20;3.33;;;;;;;35.10;19.18;98996.84;5118108;27;20997;-78
2022/06/23 06:42:39;;;;;;;6.22;3.63;;;;;;;35.37;18.50;98985.31;5116770;27;20482;-77
2022/06/23 06:45:09;;;;;;;3.70;3.15;;;;;;;35.33;18.58;98991.75;5117568;27;20510;-71
2022/06/23 06:47:37;;;;;;;5.85;3.00;;;;;;;35.57;18.89;98987.94;5117108;27;20515;-69
2022/06/23 06:50:16;;;;;;;9.85;4.05;;;;;;;36.02;18.31;98988.72;5098677;27;20035;-70
2022/06/23 06:52:41;;;;;;;6.72;3.80;;;;;;;36.59;18.42;98989.81;5116727;27;20042;-70
2022/06/23 06:55:14;;;;;;;7.97;3.53;;;;;;;37.28;18.03;98991.19;5098620;27;20034;-70
2022/06/23 06:57:58;;;;;;;17.33;4.53;;;;;;;37.95;17.65;98981.53;5098072;27;20480;-70
2022/06/23 07:00:28;;;;;;;9.85;4.60;;;;;;;38.84;16.70;98992.41;5097986;27;20436;-69
2022/06/23 07:03:03;;;;;;;14.57;6.45;;;;;;;39.89;16.87;98998.69;5098681;27;20051;-69
2022/06/23 07:05:44;;;;;;;10.77;5.53;;;;;;;40.73;15.97;98997.91;5081511;27;20568;-69
2022/06/23 07:08:24;;;;;;;25.30;8.57;;;;;;;41.15;14.69;99001.97;5118275;27;20389;-71
2022/06/23 07:10:54;;;;;;;8.02;4.95;;;;;;;41.29;14.53;98997.88;5101378;27;20412;-72
2022/06/23 07:13:34;;;;;;;7.03;5.05;;;;;;;41.41;15.15;99014.03;5126861;27;20409;-69
2022/06/23 07:16:06;;;;;;;5.97;4.28;;;;;;;41.31;14.49;99012.34;5102564;27;20042;-71
2022/06/23 07:18:50;;;;;;;4.95;4.30;;;;;;;41.66;15.00;99004.81;5102993;27;20449;-72
2022/06/23 07:21:21;;;;;;;9.57;4.68;;;;;;;41.92;14.04;99007.63;5100072;27;20059;-72
2022/06/23 07:24:00;;;;;;;8.23;5.07;;;;;;;42.27;13.93;99013.16;5098683;27;20094;-69
2022/06/23 07:26:34;;;;;;;5.00;4.57;;;;;;;42.49;13.28;99010.16;5098267;27;20038;-69
2022/06/23 07:29:12;;;;;;;9.77;5.55;;;;;;;42.95;12.98;99070.19;5098678;27;20412;-69
2022/06/23 07:31:48;;;;;;;9.60;5.47;;;;;;;43.65;12.96;99004.09;5116228;27;20416;-70
2022/06/23 07:34:15;;;;;;;5.90;5.30;;;;;;;43.98;12.67;99012.56;5081883;27;20404;-68
2022/06/23 07:36:42;;;;;;;6.00;5.40;;;;;;;44.35;12.61;99005.06;5116185;27;20446;-67
2022/06/23 07:39:13;;;;;;;5.82;5.28;;;;;;;44.72;12.31;99018.00;5116176;27;20076;-68
2022/06/23 07:41:46;;;;;;;11.40;6.53;;;;;;;45.14;11.98;99012.22;5080871;27;20447;-70
2022/06/23 07:44:21;;;;;;;15.38;7.38;;;;;;;45.85;11.70;99028.47;5096290;27;20135;-70
2022/06/23 07:46:46;;;;;;;7.03;6.32;;;;;;;46.80;10.24;99021.88;5095690;27;20075;-71
2022/06/23 07:49:11;;;;;;;8.13;7.40;;;;;;;47.64;9.71;99022.25;5097365;27;20062;-71
2022/06/23 07:51:37;;;;;;;15.82;10.07;;;;;;;48.05;9.39;99034.03;5102342;27;20430;-71
2022/06/23 07:54:03;;;;;;;9.35;8.48;;;;;;;47.67;9.07;99027.16;5097839;27;20394;-74
2022/06/23 07:56:32;;;;;;;9.02;8.32;;;;;;;47.07;9.20;99024.97;5096968;27;20078;-74
2022/06/23 07:59:15;;;;;;;8.70;7.82;;;;;;;46.88;8.75;99020.84;5096454;28;20385;-72
2022/06/23 08:01:43;;;;;;;7.85;7.20;;;;;;;45.59;9.59;99028.09;5096798;27;20031;-73
2022/06/23 08:04:29;;;;;;;8.88;6.82;;;;;;;45.45;11.09;99026.47;5097415;27;20043;-74
2022/06/23 08:06:57;;;;;;;9.30;6.97;;;;;;;45.27;10.31;99022.25;5099640;27;20408;-73
2022/06/23 08:09:30;;;;;;;7.38;6.60;;;;;;;45.88;10.12;99019.28;5083146;27;20063;-74
2022/06/23 08:16:49;;;;;;;8.27;7.63;;;;;;;46.79;9.88;99017.41;5103622;27;20137;-76
2022/06/23 08:17:44;;;;;;;16.55;9.52;;;;;;;47.27;9.58;99019.00;5122035;27;20141;-73
2022/06/23 08:20:13;;;;;;;12.27;10.57;;;;;;;48.19;9.62;99027.88;5103006;27;20095;-74
2022/06/23 08:22:39;;;;;;;12.70;8.82;;;;;;;48.70;8.76;99031.25;5102897;27;20125;-74
2022/06/23 08:25:06;;;;;;;10.38;9.48;;;;;;;49.04;8.59;99024.56;5122977;27;20050;-74
2022/06/23 08:27:33;;;;;;;12.60;11.38;;;;;;;49.20;8.76;99038.59;5085688;27;20053;-75
2022/06/23 08:30:06;;;;;;;12.90;11.85;;;;;;;49.60;8.31;99039.97;5121654;27;20047;-75
2022/06/23 08:32:32;;;;;;;11.82;10.82;;;;;;;49.61;8.63;99036.75;5102021;27;20039;-74
2022/06/23 08:35:13;;;;;;;12.70;11.63;;;;;;;49.89;7.77;99033.50;5101828;27;20046;-76
2022/06/23 08:37:49;;;;;;;12.13;11.10;;;;;;;49.96;7.91;99029.94;5101746;27;20066;-76
2022/06/23 08:40:43;;;;;;;15.68;14.55;;;;;;;50.24;8.01;99050.13;5084866;27;20292;-74
2022/06/23 08:43:11;;;;;;;13.70;12.57;;;;;;;50.31;7.45;99053.06;5092606;27;20038;-76
2022/06/23 08:45:43;;;;;;;14.13;12.93;;;;;;;50.15;8.28;99050.41;5102074;27;20050;-75
2022/06/23 08:48:19;;;;;;;15.48;14.48;;;;;;;50.11;7.85;99049.56;5104266;27;20043;-75
2022/06/23 08:51:00;;;;;;;13.88;12.05;;;;;;;49.43;7.68;99038.50;5123202;27;20111;-75
2022/06/23 08:53:54;;;;;;;12.48;11.57;;;;;;;49.01;8.58;99041.47;5123685;27;20058;-75
2022/06/23 08:56:34;;;;;;;12.18;11.20;;;;;;;48.32;8.49;99032.94;5122862;27;20023;-75
2022/06/23 08:59:25;;;;;;;11.10;10.05;;;;;;;48.54;8.44;99033.41;5114621;27;20042;-77
2022/06/23 09:02:17;;;;;;;12.20;11.30;;;;;;;49.79;8.49;99037.78;5103978;27;20070;-75
2022/06/23 09:05:24;;;;;;;14.65;13.75;;;;;;;49.96;7.96;99035.59;5102787;27;20061;-76
2022/06/23 09:07:51;;;;;;;14.63;13.73;;;;;;;49.85;7.66;99034.63;5021801;28;20063;-75
2022/06/23 09:10:35;;;;;;;15.55;14.52;;;;;;;49.97;7.46;99026.72;5037408;28;20816;-78
2022/06/23 09:13:14;;;;;;;14.48;13.15;;;;;;;50.84;7.41;99035.72;5002155;28;20055;-75
2022/06/23 09:15:39;;;;;;;20.27;18.60;;;;;;;50.98;7.53;99033.03;5018056;28;20044;-76
2022/06/23 09:18:30;;;;;;;17.85;16.50;;;;;;;51.36;7.13;99042.25;5036028;28;20056;-75
2022/06/23 09:21:16;;;;;;;19.60;18.08;;;;;;;52.56;7.08;99053.34;5036298;28;20041;-76
2022/06/23 09:23:59;;;;;;;18.98;17.42;;;;;;;52.40;6.62;99087.03;5035412;28;20067;-75
2022/06/23 09:26:32;;;;;;;23.70;22.25;;;;;;;52.74;6.25;99101.75;5035784;28;20507;-76
2022/06/23 09:29:18;;;;;;;25.60;24.10;;;;;;;53.14;6.17;99097.72;5035985;28;20070;-75
2022/06/23 09:32:06;;;;;;;26.30;24.90;;;;;;;52.51;6.48;99048.81;5018111;28;20040;-75
2022/06/23 09:34:31;;;;;;;23.60;21.85;;;;;;;51.76;6.37;99050.59;5037593;28;20052;-77
2022/06/23 09:37:12;;;;;;;29.25;27.38;;;;;;;52.56;6.67;99051.31;5020431;28;20052;-76
2022/06/23 09:40:17;;;;;;;22.85;21.55;;;;;;;53.39;6.41;99060.69;5030276;28;20078;-76
2022/06/23 09:43:03;;;;;;;26.77;25.30;;;;;;;54.09;6.30;99101.59;5077047;27;20087;-75
2022/06/23 09:45:44;;;;;;;29.48;27.90;;;;;;;53.81;5.98;99105.38;5102205;27;20539;-77
2022/06/23 09:48:20;;;;;;;29.27;27.60;;;;;;;53.59;5.94;99093.22;5118985;27;20042;-75
2022/06/23 09:51:03;;;;;;;31.80;30.13;;;;;;;53.76;5.84;99095.19;5119067;27;20034;-77
2022/06/23 09:53:38;;;;;;;31.73;30.08;;;;;;;54.72;5.62;99111.09;5118597;27;20107;-75
2022/06/23 09:56:21;;;;;;;38.03;36.08;;;;;;;54.47;5.58;99105.50;5066434;27;20046;-76
2022/06/23 09:58:58;;;;;;;39.03;37.13;;;;;;;55.30;5.52;99108.19;5084892;27;20496;-76
2022/06/23 10:01:44;;;;;;;40.05;38.15;;;;;;;54.82;5.05;99095.94;5119715;27;20296;-77
2022/06/23 10:04:31;;;;;;;34.50;32.80;;;;;;;54.76;5.37;99109.00;5083454;27;20047;-75
2022/06/23 10:07:02;;;;;;;45.28;42.65;;;;;;;54.91;5.76;99108.50;5118636;27;20045;-77
2022/06/23 10:09:47;;;;;;;40.83;38.95;;;;;;;54.41;5.73;99098.63;5118473;27;20046;-76
2022/06/23 10:12:38;;;;;;;37.22;34.90;;;;;;;54.49;5.39;99068.84;5117524;27;20038;-76
2022/06/23 10:15:18;;;;;;;35.63;33.78;;;;;;;54.31;5.59;99100.28;5099203;27;20098;-75
2022/06/23 10:17:52;;;;;;;39.67;37.67;;;;;;;54.64;5.53;99085.44;5099680;27;20046;-77
2022/06/23 10:20:40;;;;;;;45.40;42.95;;;;;;;55.82;5.22;99090.94;5118400;27;20046;-76
2022/06/23 10:23:11;;;;;;;49.65;47.28;;;;;;;55.49;5.12;99098.22;5084269;27;20038;-76
2022/06/23 10:25:42;;;;;;;49.55;46.70;;;;;;;55.92;4.84;99103.47;5083453;27;20049;-78
2022/06/23 10:28:28;;;;;;;48.55;46.17;;;;;;;56.58;4.73;99097.28;5098202;27;20125;-78
2022/06/23 10:31:01;;;;;;;52.63;50.03;;;;;;;56.48;4.82;99087.63;5117967;27;20046;-78
2022/06/23 10:33:57;;;;;;;52.10;49.75;;;;;;;56.39;5.43;99084.47;5100670;27;20594;-78
2022/06/23 10:36:33;;;;;;;36.42;34.42;;;;;;;52.55;6.25;99055.38;5017391;28;20122;-78
2022/06/23 10:39:09;;;;;;;21.73;20.45;;;;;;;47.54;8.19;99033.31;5018874;28;20095;-76
2022/06/23 10:41:36;;;;;;;14.48;13.60;;;;;;;42.98;10.51;99011.44;5000626;28;20049;-79
2022/06/23 10:44:07;;;;;;;8.93;8.02;;;;;;;40.33;13.02;99011.81;5023371;28;20071;-77
2022/06/23 10:46:41;;;;;;;7.25;6.63;;;;;;;38.06;14.60;98999.69;5019507;28;20152;-76
2022/06/23 10:49:33;;;;;;;6.00;5.50;;;;;;;36.65;16.12;99005.31;5017055;28;20068;-77
2022/06/23 10:52:31;;;;;;;5.72;5.20;;;;;;;35.24;17.20;99002.56;5022148;28;20144;-77
2022/06/23 10:54:59;;;;;;;6.10;5.05;;;;;;;33.56;19.02;99001.19;4988533;28;20126;-77
2022/06/23 10:57:29;;;;;;;5.03;4.60;;;;;;;32.78;20.37;99002.06;4993371;28;20435;-78
2022/06/23 11:00:03;;;;;;;5.78;4.10;;;;;;;31.93;20.92;99003.16;5019122;28;20507;-78
2022/06/23 11:02:59;;;;;;;4.55;4.10;;;;;;;31.58;20.64;99006.41;4999429;28;20037;-77
2022/06/23 11:06:07;;;;;;;9.68;4.60;;;;;;;30.83;21.61;99001.69;5007463;28;20053;-79
2022/06/23 11:08:58;;;;;;;6.45;4.28;;;;;;;30.17;22.41;98997.16;4983737;28;20069;-79
2022/06/23 11:11:49;;;;;;;6.60;4.10;;;;;;;29.50;23.53;99005.38;4999970;28;20041;-76
2022/06/23 11:14:14;;;;;;;7.70;4.05;;;;;;;29.01;23.72;99004.97;5079099;27;20840;-75
2022/06/23 11:16:39;;;;;;;4.95;4.10;;;;;;;28.62;24.54;99003.88;5105545;27;20520;-77
2022/06/23 11:19:24;;;;;;;6.55;4.38;;;;;;;28.47;24.33;99011.75;5107864;27;20063;-77
2022/06/23 11:22:00;;;;;;;9.88;3.95;;;;;;;28.08;24.70;99014.16;5124407;27;20508;-75
2022/06/23 11:24:30;;;;;;;10.40;4.40;;;;;;;27.78;25.18;98999.69;5122429;27;20042;-77
2022/06/23 11:26:54;;;;;;;6.57;3.55;;;;;;;27.41;26.14;99007.22;5120645;27;20057;-77
2022/06/23 11:29:41;;;;;;;5.63;3.63;;;;;;;27.18;26.59;99007.16;5084221;27;20046;-77
2022/06/23 11:32:24;;;;;;;6.40;3.67;;;;;;;27.05;26.14;99005.41;5116499;27;20088;-78
2022/06/23 11:34:55;;;;;;;8.30;4.20;;;;;;;26.71;27.18;98998.69;5062464;27;20109;-76
2022/06/23 11:37:58;;;;;;;3.60;3.30;;;;;;;26.65;26.43;99000.41;5097033;27;20054;-76
2022/06/23 11:40:31;;;;;;;7.88;3.42;;;;;;;26.41;27.34;99000.50;5084163;27;20054;-75
2022/06/23 11:43:01;;;;;;;13.45;4.93;;;;;;;26.28;27.54;98999.59;5082020;27;20054;-77
2022/06/23 11:45:32;;;;;;;9.02;4.65;;;;;;;26.10;27.89;98980.41;5082525;27;20055;-78
2022/06/23 11:48:13;;;;;;;7.78;3.83;;;;;;;26.08;28.04;99001.63;5082836;28;20101;-76
2022/06/23 11:50:51;;;;;;;4.43;3.58;;;;;;;25.96;28.10;98995.25;5101469;27;20066;-77
2022/06/23 11:53:36;;;;;;;8.43;3.70;;;;;;;25.89;27.98;99002.66;5099267;27;20496;-77
2022/06/23 11:56:33;;;;;;;4.75;4.00;;;;;;;25.77;28.57;99008.00;5100916;28;20454;-78
2022/06/23 11:59:04;;;;;;;6.18;4.00;;;;;;;25.58;30.00;99003.53;5070331;28;20075;-76
2022/06/23 12:01:29;;;;;;;16.35;4.90;;;;;;;25.44;30.00;99004.66;5072171;28;20130;-80
2022/06/23 12:04:29;;;;;;;13.23;4.93;;;;;;;25.47;28.91;99013.25;5059025;28;20015;-79
2022/06/23 12:07:06;;;;;;;5.28;3.80;;;;;;;25.29;29.50;99005.81;5090270;28;20050;-76
2022/06/23 12:09:52;;;;;;;5.93;4.03;;;;;;;25.17;30.54;99004.03;5100522;28;20043;-77
2022/06/23 12:12:21;;;;;;;6.45;4.00;;;;;;;25.10;29.96;98995.03;5062254;27;20076;-78
2022/06/23 12:14:46;;;;;;;12.20;6.68;;;;;;;25.02;30.75;99012.50;5084720;27;20046;-76
2022/06/23 12:17:24;;;;;;;12.75;4.80;;;;;;;25.02;29.40;99015.22;5083626;27;20611;-76
2022/06/23 12:20:17;;;;;;;6.63;4.10;;;;;;;24.99;29.43;99021.09;5082517;27;20047;-77
2022/06/23 12:22:52;;;;;;;11.10;4.00;;;;;;;24.82;29.81;99011.72;5098299;27;20146;-77
2022/06/23 12:25:17;;;;;;;7.45;4.65;;;;;;;24.77;30.51;99006.91;5066734;27;20526;-77
2022/06/23 12:27:46;;;;;;;4.65;3.45;;;;;;;24.72;29.51;99012.16;5067861;27;20043;-79